createdAt,value
2023-02-10T04:42:30.823Z,-6.83
2023-02-10T04:45:34.348Z,-6.83
2023-02-10T04:48:37.084Z,-7.27
2023-02-10T04:51:40.071Z,-7.21
2023-02-10T04:54:42.738Z,-7.16
2023-02-10T04:57:47.859Z,-7.17
2023-02-10T05:00:50.432Z,-7.18
2023-02-10T05:03:53.361Z,-7.18
2023-02-10T05:06:59.279Z,-7.23
2023-02-10T05:10:02.221Z,-7.25
2023-02-10T05:13:04.966Z,-7.26
2023-02-10T05:16:09.624Z,-7.23
2023-02-10T05:19:12.263Z,-7.15
2023-02-10T05:22:15.056Z,-7.11
2023-02-10T05:25:17.762Z,-7.15
2023-02-10T05:28:21.029Z,-7.13
2023-02-10T05:31:23.731Z,-7.12
2023-02-10T05:34:27.487Z,-7.20
2023-02-10T05:37:30.246Z,-7.13
2023-02-10T05:40:33.602Z,-7.19
2023-02-10T05:43:36.674Z,-7.27
2023-02-10T05:46:39.734Z,-7.24
2023-02-10T05:49:42.547Z,-7.28
2023-02-10T05:52:45.819Z,-7.19
2023-02-10T05:55:48.702Z,-7.16
2023-02-10T05:58:51.786Z,-7.18
2023-02-10T06:01:54.568Z,-7.29
2023-02-10T06:04:57.557Z,-7.32
2023-02-10T06:08:00.133Z,-7.28
2023-02-10T06:11:02.879Z,-7.28
2023-02-10T06:14:05.575Z,-7.30
2023-02-10T06:17:10.636Z,-7.30
2023-02-10T06:20:13.752Z,-7.26
2023-02-10T06:23:16.729Z,-7.14
2023-02-10T06:26:19.840Z,-7.03
2023-02-10T06:29:23.255Z,-6.84
2023-02-10T06:32:25.928Z,-6.77
2023-02-10T06:35:28.888Z,-6.62
2023-02-10T06:38:35.108Z,-6.40
2023-02-10T06:41:38.458Z,-6.26
2023-02-10T06:44:41.205Z,-6.00
2023-02-10T06:47:44.088Z,-5.73
2023-02-10T06:50:46.968Z,-5.53
2023-02-10T06:53:50.014Z,-5.30
2023-02-10T06:56:53.021Z,-5.12
2023-02-10T06:59:56.100Z,-4.91
2023-02-10T07:02:59.645Z,-4.72
2023-02-10T07:06:02.853Z,-4.55
2023-02-10T07:09:05.772Z,-4.33
2023-02-10T07:12:08.641Z,-4.15
2023-02-10T07:15:11.334Z,-3.92
2023-02-10T07:18:14.920Z,-3.78
2023-02-10T07:21:18.044Z,-3.69
2023-02-10T07:24:20.845Z,-3.60
2023-02-10T07:27:24.273Z,-3.41
2023-02-10T07:30:27.688Z,-3.25
2023-02-10T07:33:30.955Z,-3.09
2023-02-10T07:36:34.004Z,-3.01
2023-02-10T07:39:37.162Z,-2.95
2023-02-10T07:42:40.135Z,-2.82
2023-02-10T07:45:44.520Z,-2.87
2023-02-10T07:48:47.478Z,-2.73
2023-02-10T07:51:50.006Z,-2.50
2023-02-10T07:54:53.124Z,-2.28
2023-02-10T07:57:55.704Z,-2.07
2023-02-10T08:00:58.842Z,-1.88
2023-02-10T08:04:01.891Z,-1.15
2023-02-10T08:07:04.622Z,-0.34
2023-02-10T08:10:07.829Z,-0.23
2023-02-10T08:13:10.765Z,-0.49
2023-02-10T08:16:13.716Z,-0.67
2023-02-10T08:19:16.655Z,-0.72
2023-02-10T08:22:19.541Z,-0.48
2023-02-10T08:25:22.447Z,-0.32
2023-02-10T08:28:25.651Z,-0.04
2023-02-10T08:31:29.784Z,-0.02
2023-02-10T08:34:33.052Z,0.05
2023-02-10T08:37:36.350Z,0.28
2023-02-10T08:40:39.386Z,0.44
2023-02-10T08:43:43.375Z,0.41
2023-02-10T08:46:48.516Z,0.39
2023-02-10T08:49:51.497Z,0.69
2023-02-10T08:52:54.336Z,0.68
2023-02-10T08:56:05.228Z,0.65
2023-02-10T08:59:08.613Z,0.76
2023-02-10T09:02:13.056Z,0.71
2023-02-10T09:05:20.102Z,0.89
2023-02-10T09:08:23.007Z,1.07
2023-02-10T09:11:26.144Z,1.29
2023-02-10T09:14:31.271Z,1.85
2023-02-10T09:17:34.599Z,2.29
2023-02-10T09:20:37.589Z,1.99
2023-02-10T09:23:40.937Z,1.94
2023-02-10T09:26:45.018Z,1.89
2023-02-10T09:29:48.247Z,1.85
2023-02-10T09:32:51.453Z,2.02
2023-02-10T09:35:54.484Z,1.93
2023-02-10T09:38:57.767Z,1.94
2023-02-10T09:42:21.866Z,1.91
2023-02-10T09:45:27.856Z,2.06
2023-02-10T09:49:01.669Z,2.08
2023-02-10T09:52:24.836Z,2.22
2023-02-10T09:55:27.678Z,2.36
2023-02-10T09:58:43.512Z,2.40
2023-02-10T10:02:01.602Z,2.64
2023-02-10T10:05:19.234Z,2.81
2023-02-10T10:08:39.197Z,2.76
2023-02-10T10:11:45.892Z,2.89
2023-02-10T10:14:50.715Z,3.02
2023-02-10T10:18:08.780Z,2.85
2023-02-10T10:21:30.000Z,2.87
2023-02-10T10:25:02.533Z,2.98
2023-02-10T10:28:10.935Z,3.17
2023-02-10T10:31:41.394Z,3.09
2023-02-10T10:34:52.564Z,3.10
2023-02-10T10:37:55.751Z,2.98
2023-02-10T10:41:05.205Z,2.84
2023-02-10T10:44:13.153Z,2.96
2023-02-10T10:47:34.837Z,2.89
2023-02-10T10:50:41.182Z,2.86
2023-02-10T10:53:55.463Z,2.92
2023-02-10T10:57:03.171Z,3.13
2023-02-10T11:00:25.921Z,3.20
2023-02-10T11:03:29.787Z,3.19
2023-02-10T11:06:37.926Z,3.22
2023-02-10T11:09:44.036Z,3.23
2023-02-10T11:12:49.804Z,3.11
2023-02-10T11:16:19.687Z,2.90
2023-02-10T11:19:25.922Z,2.99
2023-02-10T11:22:29.110Z,3.17
2023-02-10T11:25:35.403Z,3.41
2023-02-10T11:28:38.397Z,3.36
2023-02-10T11:31:41.226Z,3.33
2023-02-10T11:34:50.198Z,3.49
2023-02-10T11:37:56.127Z,3.51
2023-02-10T11:41:02.553Z,3.67
2023-02-10T11:44:26.445Z,3.55
2023-02-10T11:47:33.596Z,3.52
2023-02-10T11:50:38.016Z,3.56
2023-02-10T11:53:41.916Z,3.74
2023-02-10T11:57:37.383Z,3.87
2023-02-10T12:01:13.850Z,3.84
2023-02-10T12:04:54.784Z,4.10
2023-02-10T12:08:33.531Z,4.15
2023-02-10T12:12:02.329Z,4.04
2023-02-10T12:15:25.873Z,4.13
2023-02-10T12:18:47.313Z,4.03
2023-02-10T12:22:29.051Z,4.06
2023-02-10T12:25:46.544Z,4.26
2023-02-10T12:29:01.066Z,4.38
2023-02-10T12:32:24.662Z,4.52
2023-02-10T12:35:35.772Z,4.57
2023-02-10T12:39:22.954Z,4.64
2023-02-10T12:42:44.422Z,4.74
2023-02-10T12:45:55.751Z,4.67
2023-02-10T12:49:33.721Z,4.74
2023-02-10T12:52:43.989Z,4.93
2023-02-10T12:56:01.770Z,4.84
2023-02-10T12:59:18.298Z,4.68
2023-02-10T13:02:27.897Z,4.81
2023-02-10T13:05:39.012Z,4.74
2023-02-10T13:08:54.916Z,4.92
2023-02-10T13:12:14.080Z,4.98
2023-02-10T13:15:24.053Z,4.86
2023-02-10T13:18:30.118Z,4.73
2023-02-10T13:21:53.143Z,5.02
2023-02-10T13:25:08.136Z,5.01
2023-02-10T13:28:37.864Z,5.10
2023-02-10T13:31:56.005Z,5.34
2023-02-10T13:35:05.966Z,5.40
2023-02-10T13:38:16.501Z,5.43
2023-02-10T13:41:43.088Z,5.72
2023-02-10T13:44:46.249Z,6.20
2023-02-10T13:47:57.158Z,6.61
2023-02-10T13:51:06.124Z,6.79
2023-02-10T13:54:26.985Z,8.66
2023-02-10T13:57:36.492Z,10.63
2023-02-10T14:00:50.038Z,12.93
2023-02-10T14:03:57.080Z,13.85
2023-02-10T14:06:59.782Z,15.39
2023-02-10T14:10:24.075Z,16.31
2023-02-10T14:13:30.832Z,16.24
2023-02-10T14:16:41.159Z,14.27
2023-02-10T14:19:46.785Z,12.49
2023-02-10T14:22:52.026Z,12.57
2023-02-10T14:26:00.880Z,11.57
2023-02-10T14:29:05.228Z,10.54
2023-02-10T14:32:08.754Z,9.53
2023-02-10T14:35:28.980Z,8.76
2023-02-10T14:38:37.375Z,8.00
2023-02-10T14:41:40.543Z,7.35
2023-02-10T14:44:47.763Z,6.74
2023-02-10T14:48:00.983Z,6.35
2023-02-10T14:51:18.677Z,6.18
2023-02-10T14:54:24.285Z,7.06
2023-02-10T14:57:29.172Z,7.67
2023-02-10T15:00:34.512Z,6.89
2023-02-10T15:03:39.559Z,5.89
2023-02-10T15:06:46.281Z,5.43
2023-02-10T15:09:49.540Z,5.04
2023-02-10T15:12:52.979Z,4.78
2023-02-10T15:15:56.237Z,4.57
2023-02-10T15:18:59.622Z,4.45
2023-02-10T15:22:03.956Z,4.35
2023-02-10T15:25:34.527Z,4.14
2023-02-10T15:28:37.689Z,3.93
2023-02-10T15:31:46.847Z,3.67
2023-02-10T15:34:53.931Z,3.52
2023-02-10T15:38:03.386Z,3.25
2023-02-10T15:41:06.094Z,3.15
2023-02-10T15:44:18.201Z,3.12
2023-02-10T15:47:24.732Z,3.04
2023-02-10T15:50:32.268Z,2.88
2023-02-10T15:53:34.984Z,2.69
2023-02-10T15:56:38.339Z,2.58
2023-02-10T15:59:41.390Z,2.55
2023-02-10T16:02:44.782Z,2.37
2023-02-10T16:05:47.960Z,2.37
2023-02-10T16:08:50.841Z,2.38
2023-02-10T16:11:55.000Z,2.41
2023-02-10T16:14:59.112Z,2.49
2023-02-10T16:18:03.774Z,2.31
